Time;durP1;ratioP1;P1;durP2;ratioP2;P2;SDS_P1;SDS_P2;PMS_P1;PMS_P2;Temp;Humidity;BMP_temperature;BMP_pressure;BME280_temperature;BME280_humidity;BME280_pressure;Samples;Min_cycle;Max_cycle;Signal;HPM_P1;HPM_P2
2023/05/04 00:02:03;;;;;;;3.87;2.27;;;;;;;8.17;72.29;101631.94;5016672;28;20215;-79
2023/05/04 00:04:30;;;;;;;3.10;2.33;;;;;;;8.19;72.13;101625.00;5016972;28;20570;-79
2023/05/04 00:06:57;;;;;;;4.60;2.50;;;;;;;8.19;72.10;101631.94;5016833;28;20678;-79
2023/05/04 00:09:24;;;;;;;3.53;2.80;;;;;;;8.23;71.96;101626.78;5016910;28;20211;-79
2023/05/04 00:11:51;;;;;;;3.17;2.83;;;;;;;8.24;71.93;101625.03;5016919;28;20264;-79
2023/05/04 00:14:17;;;;;;;5.90;2.33;;;;;;;8.20;72.46;101628.47;5016745;28;20624;-79
2023/05/04 00:16:44;;;;;;;4.83;2.63;;;;;;;8.23;72.20;101629.38;5017139;28;20280;-79
2023/05/04 00:19:10;;;;;;;3.23;2.57;;;;;;;8.26;71.61;101631.13;5016455;28;20606;-79
2023/05/04 00:21:37;;;;;;;3.13;2.57;;;;;;;8.19;70.96;101651.03;5016302;28;20210;-79
2023/05/04 00:24:05;;;;;;;3.90;2.40;;;;;;;8.15;70.43;101651.84;5016879;28;20365;-79
2023/05/04 00:26:32;;;;;;;4.00;2.83;;;;;;;8.14;71.50;101657.88;5015942;28;20564;-78
2023/05/04 00:28:58;;;;;;;5.67;2.40;;;;;;;8.08;71.38;101650.03;5016510;28;20237;-78
2023/05/04 00:31:25;;;;;;;2.70;2.40;;;;;;;8.04;72.03;101645.66;5016010;28;20686;-79
2023/05/04 00:33:51;;;;;;;4.87;2.77;;;;;;;8.00;73.14;101634.34;5015739;28;20239;-79
2023/05/04 00:36:18;;;;;;;3.63;3.13;;;;;;;7.93;73.86;101622.13;5019569;28;20242;-79
2023/05/04 00:38:49;;;;;;;4.50;3.00;;;;;;;7.82;74.17;101589.94;5019444;28;20701;-79
2023/05/04 00:41:17;;;;;;;3.43;3.03;;;;;;;7.78;73.72;101580.38;5019787;28;20232;-79
2023/05/04 00:43:44;;;;;;;3.90;3.27;;;;;;;7.73;72.97;101576.00;5020624;28;20218;-78
2023/05/04 00:46:11;;;;;;;4.27;2.73;;;;;;;7.67;73.08;101581.13;5019791;28;20213;-78
2023/05/04 00:48:38;;;;;;;4.80;3.20;;;;;;;7.66;73.80;101573.31;5019846;28;20234;-79
2023/05/04 00:51:06;;;;;;;5.00;2.50;;;;;;;7.61;74.19;101567.19;5019283;28;20245;-79
2023/05/04 00:53:33;;;;;;;2.67;2.37;;;;;;;7.54;74.08;101556.72;5019749;28;20208;-79
2023/05/04 00:56:01;;;;;;;2.87;2.40;;;;;;;7.52;74.30;101544.56;5019339;28;20225;-79
2023/05/04 00:58:31;;;;;;;3.87;2.33;;;;;;;7.52;74.24;101539.38;5019367;28;20226;-78
2023/05/04 01:00:57;;;;;;;3.20;2.80;;;;;;;7.48;74.56;101535.00;5019635;28;20209;-79
2023/05/04 01:03:24;;;;;;;3.87;2.60;;;;;;;7.34;74.95;101530.50;5019507;28;20213;-79
2023/05/04 01:05:58;;;;;;;2.97;2.70;;;;;;;7.33;74.73;101520.09;5019722;28;20199;-77
2023/05/04 01:08:30;;;;;;;3.50;2.40;;;;;;;7.27;75.22;101507.03;5019520;28;20282;-78
2023/05/04 01:11:03;;;;;;;3.27;2.40;;;;;;;7.29;75.15;101498.41;5018803;28;20220;-78
2023/05/04 01:13:34;;;;;;;3.53;2.50;;;;;;;7.27;74.77;101504.44;5018951;28;20210;-78
2023/05/04 01:16:02;;;;;;;5.03;2.33;;;;;;;7.10;75.23;101510.31;5019073;28;20703;-77
2023/05/04 01:18:28;;;;;;;3.40;2.33;;;;;;;6.96;75.91;101507.53;5019332;28;20257;-78
2023/05/04 01:20:55;;;;;;;2.50;2.30;;;;;;;7.02;76.46;101492.91;5018994;28;20211;-79
2023/05/04 01:23:23;;;;;;;3.00;2.57;;;;;;;7.01;75.64;101483.34;5018920;28;20671;-78
2023/05/04 01:25:57;;;;;;;4.03;2.00;;;;;;;7.01;75.32;101492.00;5018700;28;20284;-79
2023/05/04 01:28:32;;;;;;;3.07;2.27;;;;;;;6.92;75.89;101495.38;5018515;28;20274;-78
2023/05/04 01:31:01;;;;;;;2.60;2.40;;;;;;;6.99;76.07;101483.34;5017559;28;20203;-80
2023/05/04 01:33:28;;;;;;;3.37;2.20;;;;;;;6.97;75.71;101480.72;5017072;28;20271;-78
2023/05/04 01:35:55;;;;;;;3.07;2.47;;;;;;;6.87;76.22;101480.59;5017098;28;20244;-80
2023/05/04 01:38:23;;;;;;;4.27;2.40;;;;;;;6.79;76.85;101464.06;5018096;28;20277;-80
2023/05/04 01:40:49;;;;;;;2.60;2.40;;;;;;;6.75;78.39;101455.34;5018289;28;20206;-79
2023/05/04 01:43:16;;;;;;;2.50;2.30;;;;;;;6.84;78.63;101431.22;5018713;28;20210;-79
2023/05/04 01:45:42;;;;;;;3.90;3.10;;;;;;;6.82;77.85;101427.75;5018094;28;20236;-79
2023/05/04 01:48:09;;;;;;;3.00;2.70;;;;;;;6.86;78.41;101425.22;5017928;28;20238;-78
2023/05/04 01:50:35;;;;;;;3.40;3.07;;;;;;;6.84;78.33;101413.94;5018478;28;20212;-78
2023/05/04 01:53:02;;;;;;;4.23;3.10;;;;;;;6.76;79.31;101407.81;5019110;28;20206;-79
2023/05/04 01:55:30;;;;;;;3.70;3.13;;;;;;;6.70;79.23;101402.50;5018582;28;20213;-79
2023/05/04 01:57:56;;;;;;;3.27;2.90;;;;;;;6.66;80.26;101370.50;5017907;28;20241;-78
2023/05/04 02:00:23;;;;;;;3.63;3.10;;;;;;;6.68;80.38;101375.69;5019041;28;20204;-79
2023/05/04 02:02:50;;;;;;;4.63;2.87;;;;;;;6.64;79.70;101382.56;5018846;28;20287;-79
2023/05/04 02:05:16;;;;;;;4.30;3.70;;;;;;;6.53;80.61;101361.66;5019355;28;20244;-79
2023/05/04 02:07:43;;;;;;;3.83;3.43;;;;;;;6.60;80.40;101357.44;5018487;28;20258;-79
2023/05/04 02:10:10;;;;;;;4.47;3.17;;;;;;;6.59;80.31;101370.41;5030587;28;20225;-79
2023/05/04 02:12:38;;;;;;;5.87;3.30;;;;;;;6.63;79.83;101357.47;5037822;28;20215;-78
2023/05/04 02:15:05;;;;;;;4.60;3.60;;;;;;;6.63;79.47;101380.81;5038555;28;20255;-79
2023/05/04 02:17:31;;;;;;;3.33;2.93;;;;;;;6.62;78.86;101385.97;5038601;28;20240;-79
2023/05/04 02:19:57;;;;;;;3.10;2.77;;;;;;;6.54;78.59;101398.84;5038095;28;20270;-79
2023/05/04 02:22:24;;;;;;;4.30;3.00;;;;;;;6.50;78.73;101404.84;5037518;28;20736;-79
2023/05/04 02:24:50;;;;;;;4.17;3.10;;;;;;;6.49;79.55;101416.94;5038855;28;20208;-79
2023/05/04 02:27:17;;;;;;;3.93;3.50;;;;;;;6.44;79.27;101412.56;5039938;28;20253;-79
2023/05/04 02:29:45;;;;;;;4.10;3.47;;;;;;;6.41;78.90;101421.16;5039339;28;20215;-78
2023/05/04 02:32:11;;;;;;;4.10;3.13;;;;;;;6.32;78.46;101432.28;5038595;28;20208;-79
2023/05/04 02:34:37;;;;;;;3.30;2.83;;;;;;;6.29;78.65;101431.38;5037554;28;20281;-79
2023/05/04 02:37:04;;;;;;;4.87;3.40;;;;;;;6.22;79.17;101432.13;5025765;28;20272;-78
2023/05/04 02:39:30;;;;;;;4.07;2.80;;;;;;;6.24;78.67;101430.41;5017300;28;20234;-79
2023/05/04 02:41:57;;;;;;;3.47;3.17;;;;;;;6.13;79.45;101432.88;5017397;28;20278;-78
2023/05/04 02:44:23;;;;;;;3.80;3.47;;;;;;;6.08;79.19;101418.94;5017409;28;20261;-79
2023/05/04 02:46:51;;;;;;;3.93;3.00;;;;;;;6.12;79.39;101411.22;5017637;28;20200;-79
2023/05/04 02:49:18;;;;;;;3.57;3.00;;;;;;;6.17;79.60;101419.09;5017481;28;20208;-79
2023/05/04 02:51:46;;;;;;;3.90;3.53;;;;;;;6.18;80.09;101412.19;5017615;28;20217;-79
2023/05/04 02:54:12;;;;;;;5.67;5.17;;;;;;;6.07;81.48;101401.66;5017487;28;20304;-79
2023/05/04 02:56:39;;;;;;;5.40;4.00;;;;;;;6.16;80.49;101386.22;5017537;28;20240;-79
2023/05/04 02:59:05;;;;;;;4.87;4.47;;;;;;;6.15;80.43;101398.31;5016414;28;20231;-79
2023/05/04 03:01:31;;;;;;;6.17;4.83;;;;;;;6.14;79.96;101394.00;5017396;28;20743;-78
2023/05/04 03:03:59;;;;;;;6.27;5.47;;;;;;;6.22;80.06;101386.31;5017380;28;20208;-78
2023/05/04 03:06:26;;;;;;;7.00;6.30;;;;;;;6.16;79.85;101389.72;5017103;28;20202;-78
2023/05/04 03:08:52;;;;;;;8.10;6.50;;;;;;;6.19;79.24;101399.25;5016942;28;20229;-79
2023/05/04 03:11:18;;;;;;;8.63;6.33;;;;;;;6.11;79.29;101412.09;5017356;28;20214;-79
2023/05/04 03:13:45;;;;;;;5.97;5.40;;;;;;;6.10;78.98;101410.34;5017638;28;20208;-78
2023/05/04 03:16:11;;;;;;;7.23;6.37;;;;;;;6.12;79.77;101400.00;5017243;28;20218;-79
2023/05/04 03:18:38;;;;;;;8.80;8.00;;;;;;;6.08;79.63;101404.25;5016737;28;20272;-79
2023/05/04 03:21:05;;;;;;;8.40;7.70;;;;;;;6.03;79.39;101405.06;5017555;28;20241;-79
2023/05/04 03:23:32;;;;;;;8.63;7.67;;;;;;;6.03;80.05;101394.69;5017246;28;20268;-79
2023/05/04 03:25:58;;;;;;;7.97;7.13;;;;;;;6.04;80.27;101394.69;5016804;28;20209;-79
2023/05/04 03:28:25;;;;;;;7.10;6.40;;;;;;;6.08;80.49;101393.88;5016574;28;20558;-79
2023/05/04 03:30:51;;;;;;;7.67;6.20;;;;;;;6.12;80.80;101393.09;5016297;28;20203;-77
2023/05/04 03:33:18;;;;;;;6.07;5.53;;;;;;;6.17;79.85;101393.19;5017004;28;20772;-79
2023/05/04 03:35:44;;;;;;;5.87;5.03;;;;;;;6.21;79.88;101381.13;5016583;28;20261;-79
2023/05/04 03:38:12;;;;;;;6.97;5.40;;;;;;;6.16;80.60;101388.81;5016480;28;20228;-78
2023/05/04 03:40:38;;;;;;;5.47;4.80;;;;;;;6.16;81.00;101376.75;5016457;28;20611;-79
2023/05/04 03:43:05;;;;;;;4.53;4.23;;;;;;;6.08;81.26;101380.94;5016108;28;20256;-79
2023/05/04 03:45:31;;;;;;;4.17;3.87;;;;;;;6.18;80.75;101371.56;5016898;28;20214;-79
2023/05/04 03:47:58;;;;;;;4.57;4.17;;;;;;;6.22;80.18;101364.72;5016684;28;20221;-79
2023/05/04 03:50:24;;;;;;;4.20;3.77;;;;;;;6.20;80.11;101377.66;5017188;28;20397;-79
2023/05/04 03:52:51;;;;;;;5.17;3.97;;;;;;;6.24;80.62;101379.44;5016542;28;20210;-79
2023/05/04 03:55:18;;;;;;;4.17;3.87;;;;;;;6.21;80.73;101376.81;5016084;28;20217;-78
2023/05/04 03:57:45;;;;;;;4.00;3.63;;;;;;;6.18;80.44;101373.31;5016052;28;20228;-78
2023/05/04 04:00:13;;;;;;;5.00;4.33;;;;;;;6.07;80.54;101386.13;5016855;28;20268;-79
2023/05/04 04:02:39;;;;;;;5.87;4.33;;;;;;;6.06;80.00;101384.34;5016634;28;20214;-79
2023/05/04 04:05:07;;;;;;;4.63;3.83;;;;;;;5.97;81.17;101380.78;5016340;28;20737;-78
2023/05/04 04:07:33;;;;;;;3.90;3.60;;;;;;;6.03;80.80;101379.16;5016068;28;20228;-79
2023/05/04 04:10:00;;;;;;;5.63;4.10;;;;;;;6.08;80.99;101370.56;5015975;28;20254;-79
2023/05/04 04:12:27;;;;;;;5.90;4.50;;;;;;;6.10;80.77;101374.06;5015759;28;20219;-79
2023/05/04 04:14:54;;;;;;;4.63;4.07;;;;;;;6.16;80.51;101371.56;5017107;28;20413;-79
2023/05/04 04:17:20;;;;;;;5.00;4.20;;;;;;;6.23;80.26;101376.84;5016129;28;20314;-78
2023/05/04 04:19:47;;;;;;;4.60;3.97;;;;;;;6.21;79.85;101384.59;5015330;28;20208;-79
2023/05/04 04:22:13;;;;;;;4.37;3.97;;;;;;;6.19;80.21;101382.84;5016023;28;20627;-79
2023/05/04 04:24:40;;;;;;;4.30;3.90;;;;;;;6.23;80.04;101384.63;5016317;28;20211;-78
2023/05/04 04:27:06;;;;;;;4.20;3.90;;;;;;;6.19;80.04;101393.19;5016567;28;20204;-78
2023/05/04 04:29:34;;;;;;;6.93;5.20;;;;;;;6.20;80.19;101400.97;5015899;28;20669;-79
2023/05/04 04:32:01;;;;;;;4.70;4.30;;;;;;;6.05;80.71;101393.88;5016351;28;20251;-79
2023/05/04 04:34:27;;;;;;;5.67;4.37;;;;;;;6.06;81.06;101377.44;5016989;28;20689;-79
2023/05/04 04:36:53;;;;;;;5.10;4.47;;;;;;;6.12;81.93;101358.53;5016004;28;20286;-79
2023/05/04 04:39:21;;;;;;;5.40;4.90;;;;;;;6.20;81.97;101354.31;5027443;22;20302;-79
2023/05/04 04:41:47;;;;;;;4.23;3.83;;;;;;;6.16;82.10;101336.97;5012261;28;20700;-79
2023/05/04 04:44:14;;;;;;;4.83;4.27;;;;;;;6.24;82.26;101332.75;5012883;28;20432;-79
2023/05/04 04:46:43;;;;;;;5.57;4.30;;;;;;;6.29;82.71;101325.94;5013106;28;20209;-79
2023/05/04 04:49:11;;;;;;;4.73;4.30;;;;;;;6.35;83.22;101318.22;5012960;28;20241;-79
2023/05/04 04:51:37;;;;;;;4.90;4.20;;;;;;;6.30;83.08;101306.94;5012889;28;20240;-79
2023/05/04 04:54:03;;;;;;;4.17;3.40;;;;;;;6.35;83.24;101297.47;5012816;28;20209;-79
2023/05/04 04:56:30;;;;;;;4.87;4.47;;;;;;;6.41;82.52;101296.69;5012981;28;20205;-79
2023/05/04 04:58:56;;;;;;;4.17;3.77;;;;;;;6.54;79.96;101331.41;5013540;28;20718;-79
2023/05/04 05:01:23;;;;;;;5.20;4.17;;;;;;;6.66;79.15;101361.81;5013634;28;20214;-80
2023/05/04 05:03:51;;;;;;;5.63;4.40;;;;;;;6.74;78.87;101392.22;5015561;28;20206;-79
2023/05/04 05:06:18;;;;;;;4.67;4.00;;;;;;;6.89;78.13;101421.78;5016177;28;20664;-80
2023/05/04 05:08:45;;;;;;;9.73;4.30;;;;;;;6.93;77.83;101433.94;5015946;28;20226;-80
2023/05/04 05:11:11;;;;;;;4.40;4.00;;;;;;;7.01;77.09;101454.81;5014154;28;20289;-79
2023/05/04 05:13:38;;;;;;;5.23;4.30;;;;;;;7.07;76.57;101467.84;5017621;28;20787;-80
2023/05/04 05:16:05;;;;;;;5.90;4.00;;;;;;;7.12;75.42;101484.38;5019693;28;20625;-80
2023/05/04 05:18:31;;;;;;;3.60;3.30;;;;;;;7.16;75.59;101500.00;5017562;28;20281;-80
2023/05/04 05:20:59;;;;;;;5.47;4.00;;;;;;;7.17;75.53;101513.84;5016335;28;20220;-80
2023/05/04 05:23:26;;;;;;;4.07;3.77;;;;;;;7.25;74.92;101532.97;5021651;28;20266;-80
2023/05/04 05:25:52;;;;;;;6.37;4.13;;;;;;;7.26;76.92;101515.69;5020629;28;20200;-80
2023/05/04 05:28:18;;;;;;;4.87;3.93;;;;;;;7.33;75.67;101513.19;5018318;28;20291;-79
2023/05/04 05:30:45;;;;;;;9.17;3.47;;;;;;;7.44;75.09;101533.22;5016318;28;20212;-79
2023/05/04 05:33:11;;;;;;;5.83;3.33;;;;;;;7.49;73.33;101558.41;5017169;28;20269;-78
2023/05/04 05:35:38;;;;;;;5.40;3.63;;;;;;;7.53;74.59;101567.97;5016298;28;20236;-79
2023/05/04 05:38:06;;;;;;;3.63;3.30;;;;;;;7.59;73.14;101572.38;5014641;28;20256;-80
2023/05/04 05:40:32;;;;;;;6.13;3.77;;;;;;;7.66;73.74;101596.69;5016571;28;20209;-81
2023/05/04 05:42:59;;;;;;;3.90;3.47;;;;;;;7.70;73.00;101616.66;5017295;28;20205;-81
2023/05/04 05:45:25;;;;;;;3.63;3.17;;;;;;;7.73;72.29;101627.97;5017665;28;20281;-80
2023/05/04 05:47:52;;;;;;;4.03;3.60;;;;;;;7.79;72.87;101639.28;5016965;28;20733;-80
2023/05/04 05:50:18;;;;;;;4.57;3.80;;;;;;;7.81;72.12;101641.06;5018907;28;20210;-81
2023/05/04 05:52:45;;;;;;;6.50;3.57;;;;;;;7.86;72.09;101652.38;5017559;28;20221;-81
2023/05/04 05:55:12;;;;;;;3.90;3.50;;;;;;;7.96;72.58;101658.56;5017762;28;20207;-80
2023/05/04 05:57:39;;;;;;;4.30;3.40;;;;;;;8.02;71.38;101673.34;5017786;28;20278;-81
2023/05/04 06:00:07;;;;;;;3.47;3.10;;;;;;;8.09;71.28;101685.59;5018794;28;20214;-81
2023/05/04 06:02:33;;;;;;;4.83;3.47;;;;;;;8.14;71.72;101689.97;5017574;28;20529;-82
2023/05/04 06:05:00;;;;;;;6.10;3.43;;;;;;;8.24;71.50;101680.53;5018703;28;20305;-80
2023/05/04 06:07:27;;;;;;;5.63;3.73;;;;;;;8.31;71.47;101676.28;5017951;28;20206;-78
2023/05/04 06:09:53;;;;;;;3.53;3.20;;;;;;;8.38;71.91;101675.47;5015621;28;20677;-78
2023/05/04 06:12:21;;;;;;;5.77;3.60;;;;;;;8.45;71.92;101661.72;5016715;28;20218;-82
2023/05/04 06:14:47;;;;;;;3.93;3.23;;;;;;;8.52;72.02;101649.63;5018283;28;20215;-82
2023/05/04 06:17:18;;;;;;;3.97;3.53;;;;;;;8.58;71.86;101656.59;5017026;28;20211;-79
2023/05/04 06:19:49;;;;;;;4.50;3.33;;;;;;;8.67;71.92;101654.97;5018193;28;20445;-80
2023/05/04 06:22:16;;;;;;;4.43;4.03;;;;;;;8.81;72.21;101649.88;5018284;28;20242;-80
2023/05/04 06:24:42;;;;;;;5.60;4.00;;;;;;;8.93;72.12;101642.16;5018439;28;20210;-80
2023/05/04 06:27:09;;;;;;;5.50;4.00;;;;;;;9.05;71.51;101649.16;5018725;28;20210;-80
2023/05/04 06:29:40;;;;;;;5.67;4.27;;;;;;;9.13;70.83;101662.25;5019029;28;20257;-80
2023/05/04 06:32:06;;;;;;;8.83;3.90;;;;;;;9.22;70.44;101675.34;5017800;28;20210;-80
2023/05/04 06:34:33;;;;;;;4.90;4.43;;;;;;;9.28;69.79;101687.56;5018318;28;20209;-79
2023/05/04 06:36:59;;;;;;;4.80;4.20;;;;;;;9.33;70.00;101704.94;5017543;28;20217;-80
2023/05/04 06:39:28;;;;;;;4.83;4.20;;;;;;;9.41;69.92;101707.59;5016781;28;20234;-79
2023/05/04 06:41:58;;;;;;;5.73;4.53;;;;;;;9.50;69.54;101717.22;5017390;28;20201;-82
2023/05/04 06:44:29;;;;;;;4.83;4.37;;;;;;;9.60;69.52;101723.38;5023988;28;20224;-82
2023/05/04 06:46:56;;;;;;;5.30;4.80;;;;;;;9.71;69.36;101732.09;5019936;28;20222;-81
2023/05/04 06:49:23;;;;;;;7.13;5.20;;;;;;;9.78;69.67;101730.41;5018874;28;20231;-83
2023/05/04 06:51:49;;;;;;;5.40;4.90;;;;;;;9.86;69.04;101739.13;5016459;28;20211;-79
2023/05/04 06:54:16;;;;;;;6.37;5.03;;;;;;;9.95;68.93;101757.44;5018252;28;20210;-83
2023/05/04 06:56:42;;;;;;;7.50;5.13;;;;;;;10.03;68.11;101758.34;5017556;28;20206;-81
2023/05/04 06:59:09;;;;;;;7.77;4.83;;;;;;;10.05;67.62;101776.59;5018522;28;20230;-82
2023/05/04 07:01:36;;;;;;;8.87;4.93;;;;;;;10.08;67.94;101792.28;5020889;28;20218;-81
2023/05/04 07:04:09;;;;;;;5.03;4.63;;;;;;;10.09;69.35;101781.88;5019151;28;20241;-80
2023/05/04 07:06:36;;;;;;;5.13;4.47;;;;;;;10.19;68.75;101772.34;5017471;28;20221;-80
2023/05/04 07:09:26;;;;;;;5.20;4.80;;;;;;;10.29;68.50;101774.13;5016180;28;20223;-82
2023/05/04 07:11:52;;;;;;;6.03;4.53;;;;;;;10.32;70.09;101774.13;4936957;29;20260;-81
2023/05/04 07:14:18;;;;;;;4.80;4.30;;;;;;;10.40;70.29;101741.97;5013195;28;20242;-81
2023/05/04 07:16:45;;;;;;;5.63;5.03;;;;;;;10.51;69.78;101732.44;5017412;28;20207;-81
2023/05/04 07:19:13;;;;;;;5.43;4.43;;;;;;;10.58;68.96;101736.78;5017317;28;20234;-80
2023/05/04 07:21:40;;;;;;;6.10;4.43;;;;;;;10.62;69.27;101738.53;5016341;28;20204;-81
2023/05/04 07:24:06;;;;;;;5.03;4.60;;;;;;;10.65;69.92;101733.34;5017267;28;20202;-80
2023/05/04 07:26:33;;;;;;;5.00;4.50;;;;;;;10.72;69.46;101721.16;5017038;28;20294;-80
2023/05/04 07:28:59;;;;;;;6.60;5.40;;;;;;;10.83;69.36;101722.03;5016794;28;20226;-82
2023/05/04 07:31:26;;;;;;;4.93;4.47;;;;;;;10.95;69.76;101712.47;5018952;28;20681;-81
2023/05/04 07:33:52;;;;;;;10.97;4.90;;;;;;;11.02;69.22;101715.09;5016296;28;20199;-79
2023/05/04 07:36:20;;;;;;;7.33;4.80;;;;;;;11.11;69.53;101724.66;5017080;28;20265;-81
2023/05/04 07:38:46;;;;;;;5.30;4.03;;;;;;;11.19;68.46;101719.44;5017113;28;20300;-80
2023/05/04 07:41:13;;;;;;;4.43;3.83;;;;;;;11.30;68.52;101730.75;5018031;28;20266;-82
2023/05/04 07:43:39;;;;;;;4.50;4.07;;;;;;;11.36;69.02;101732.47;5020783;28;20206;-79
2023/05/04 07:46:06;;;;;;;4.17;3.77;;;;;;;11.48;68.67;101738.56;5017316;28;20215;-80
2023/05/04 07:48:33;;;;;;;5.20;4.30;;;;;;;11.57;67.92;101745.50;5016540;28;20223;-79
2023/05/04 07:50:59;;;;;;;6.10;4.63;;;;;;;11.63;68.33;101749.84;5016551;28;20211;-79
2023/05/04 07:53:30;;;;;;;4.73;4.17;;;;;;;11.68;68.23;101748.97;5015442;28;20206;-79
2023/05/04 07:55:59;;;;;;;6.37;4.43;;;;;;;11.78;67.38;101757.69;5017129;28;20206;-81
2023/05/04 07:58:26;;;;;;;6.25;5.03;;;;;;;11.87;67.29;101764.63;5016064;28;20470;-82
2023/05/04 08:00:52;;;;;;;5.57;4.87;;;;;;;11.91;67.65;101769.88;5016715;28;20261;-80
2023/05/04 08:03:18;;;;;;;5.37;4.83;;;;;;;11.99;67.40;101769.88;5017053;28;20241;-83
2023/05/04 08:05:45;;;;;;;6.10;5.43;;;;;;;12.04;67.65;101768.09;5016099;28;20210;-79
2023/05/04 08:08:11;;;;;;;6.60;4.90;;;;;;;12.14;67.02;101761.06;5015294;28;20223;-79
2023/05/04 08:10:39;;;;;;;5.37;4.47;;;;;;;12.15;66.27;101777.63;5016273;28;20248;-81
2023/05/04 08:13:06;;;;;;;5.63;4.60;;;;;;;12.16;68.16;101767.16;5016666;28;20215;-81
2023/05/04 08:15:32;;;;;;;5.47;4.67;;;;;;;12.26;66.55;101766.25;5017169;28;20211;-82
2023/05/04 08:17:59;;;;;;;4.53;4.13;;;;;;;12.33;65.62;101782.81;5015437;28;20274;-83
2023/05/04 08:20:25;;;;;;;5.80;4.83;;;;;;;12.39;65.15;101811.59;5016152;28;20215;-82
2023/05/04 08:22:52;;;;;;;4.97;4.57;;;;;;;12.40;65.81;101815.06;5016481;28;20203;-79
2023/05/04 08:25:18;;;;;;;5.90;4.43;;;;;;;12.57;68.49;101767.88;5015373;28;20207;-80
2023/05/04 08:27:46;;;;;;;5.87;4.47;;;;;;;12.63;66.45;101755.59;5015210;28;20228;-82
2023/05/04 08:30:13;;;;;;;5.67;4.80;;;;;;;12.75;67.03;101756.41;5015413;28;20210;-81
2023/05/04 08:32:40;;;;;;;6.73;4.90;;;;;;;12.86;67.07;101744.97;5016550;28;20254;-81
2023/05/04 08:35:07;;;;;;;4.83;4.40;;;;;;;12.95;65.33;101756.25;5015206;28;20273;-81
2023/05/04 08:37:33;;;;;;;5.43;4.70;;;;;;;13.01;66.23;101777.16;5014982;28;20293;-81
2023/05/04 08:39:59;;;;;;;6.00;5.47;;;;;;;13.14;66.50;101785.78;5016314;28;20226;-80
2023/05/04 08:42:27;;;;;;;6.10;5.17;;;;;;;13.25;66.99;101752.50;5016472;28;20212;-80
2023/05/04 08:44:59;;;;;;;5.20;4.70;;;;;;;13.38;64.56;101763.75;5016983;28;20298;-81
2023/05/04 08:47:26;;;;;;;8.93;4.37;;;;;;;13.44;63.73;101789.97;5016698;28;20207;-81
2023/05/04 08:49:52;;;;;;;5.87;3.80;;;;;;;13.52;63.12;101809.13;5016974;28;20203;-82
2023/05/04 08:52:21;;;;;;;5.40;4.80;;;;;;;13.57;61.86;101843.19;5016866;28;20207;-83
2023/05/04 08:54:48;;;;;;;5.13;4.60;;;;;;;13.62;63.48;101849.28;5017143;28;20210;-83
2023/05/04 08:57:16;;;;;;;7.67;5.23;;;;;;;13.71;61.57;101857.03;5018303;28;20207;-83
2023/05/04 08:59:44;;;;;;;4.73;4.33;;;;;;;13.74;62.36;101880.63;5021023;28;20235;-82
2023/05/04 09:02:13;;;;;;;4.90;4.43;;;;;;;13.81;60.88;101878.81;5020452;28;20207;-83
2023/05/04 09:04:39;;;;;;;5.80;5.17;;;;;;;13.86;60.67;101905.91;5020484;28;20288;-83
2023/05/04 09:07:06;;;;;;;7.57;4.60;;;;;;;13.92;62.71;101884.84;5023208;28;20236;-83
2023/05/04 09:09:32;;;;;;;5.00;3.47;;;;;;;14.00;60.74;101890.03;5019282;28;20281;-80
2023/05/04 09:11:59;;;;;;;6.70;3.70;;;;;;;14.09;58.00;101910.91;5020615;28;20208;-81
2023/05/04 09:14:32;;;;;;;7.77;3.73;;;;;;;14.12;56.38;101976.56;5021287;28;20216;-82
2023/05/04 09:16:58;;;;;;;4.60;3.83;;;;;;;14.10;59.09;102001.97;5020743;28;20236;-82
2023/05/04 09:19:32;;;;;;;4.33;3.63;;;;;;;14.19;56.90;101995.75;5019962;28;20653;-81
2023/05/04 09:21:58;;;;;;;4.50;3.47;;;;;;;14.22;57.35;102035.13;5019427;28;20240;-81
2023/05/04 09:24:26;;;;;;;4.73;3.63;;;;;;;14.27;56.61;102034.22;5020567;28;20215;-81
2023/05/04 09:26:52;;;;;;;4.17;3.77;;;;;;;14.31;56.40;102048.19;5019908;28;20204;-81
2023/05/04 09:29:20;;;;;;;5.33;3.30;;;;;;;14.38;56.62;102051.63;5018514;28;20299;-80
2023/05/04 09:31:48;;;;;;;4.17;2.93;;;;;;;14.44;58.60;102025.28;5018794;28;20208;-82
2023/05/04 09:34:15;;;;;;;4.57;4.00;;;;;;;14.52;56.17;102014.72;5018836;28;20216;-83
2023/05/04 09:36:43;;;;;;;4.60;3.60;;;;;;;14.49;57.36;102055.91;5019930;28;20208;-81
2023/05/04 09:39:14;;;;;;;5.00;3.43;;;;;;;14.57;60.40;101995.44;5020701;28;20262;-81
2023/05/04 09:41:41;;;;;;;4.60;3.57;;;;;;;14.68;56.65;101948.84;5018824;28;20253;-81
2023/05/04 09:44:17;;;;;;;3.73;3.33;;;;;;;14.74;55.96;101995.22;5021038;28;20273;-84
2023/05/04 09:46:52;;;;;;;6.27;3.60;;;;;;;14.81;54.33;102035.47;5018796;28;20215;-80
2023/05/04 09:49:19;;;;;;;5.40;3.23;;;;;;;14.85;54.72;102064.34;5019888;28;20831;-80
2023/05/04 09:51:47;;;;;;;6.37;3.57;;;;;;;14.98;54.31;102072.94;5019438;28;20299;-81
2023/05/04 09:54:16;;;;;;;4.40;2.93;;;;;;;15.08;53.28;102082.50;5018282;28;20205;-83
2023/05/04 09:56:49;;;;;;;3.40;3.00;;;;;;;15.17;53.51;102104.31;5019317;28;20267;-81
2023/05/04 09:59:16;;;;;;;5.00;3.30;;;;;;;15.28;52.64;102116.47;5019521;28;20242;-83
2023/05/04 10:01:44;;;;;;;7.07;3.40;;;;;;;15.33;51.83;102131.34;5019030;28;20208;-81
2023/05/04 10:04:10;;;;;;;3.90;3.10;;;;;;;15.40;52.08;102149.66;5018863;28;20207;-81
2023/05/04 10:06:37;;;;;;;4.23;3.03;;;;;;;15.46;52.03;102157.50;5019756;28;20638;-82
2023/05/04 10:09:05;;;;;;;4.83;3.17;;;;;;;15.51;52.30;102173.22;5018405;28;20274;-82
2023/05/04 10:11:32;;;;;;;4.60;3.20;;;;;;;15.60;53.00;102133.63;5018948;28;20397;-83
2023/05/04 10:13:59;;;;;;;3.60;3.27;;;;;;;15.67;51.67;102130.00;5018732;28;20213;-82
2023/05/04 10:16:39;;;;;;;8.53;3.50;;;;;;;15.73;50.94;102150.16;5019050;28;20712;-81
2023/05/04 10:19:24;;;;;;;3.10;2.77;;;;;;;15.81;50.29;102176.41;5021001;28;20230;-82
2023/05/04 10:22:08;;;;;;;5.43;3.13;;;;;;;15.76;51.60;102186.13;5019959;28;20212;-82
2023/05/04 10:25:11;;;;;;;5.93;3.27;;;;;;;15.84;52.72;102181.63;5019918;28;20286;-82
2023/05/04 10:27:52;;;;;;;3.40;3.10;;;;;;;16.03;49.67;102161.16;5014002;28;20267;-83
2023/05/04 10:30:19;;;;;;;3.47;3.10;;;;;;;16.16;50.35;102172.41;5020714;28;20736;-81
2023/05/04 10:32:45;;;;;;;3.53;3.20;;;;;;;16.24;52.44;102142.41;5022819;28;20214;-83
2023/05/04 10:35:13;;;;;;;4.27;3.20;;;;;;;16.37;50.99;102136.94;5030117;28;20233;-81
2023/05/04 10:37:50;;;;;;;3.77;2.90;;;;;;;16.49;50.59;102142.06;5026135;28;20276;-78
2023/05/04 10:40:18;;;;;;;4.57;3.00;;;;;;;16.57;49.66;102150.69;5068571;23;20236;-80
2023/05/04 10:42:44;;;;;;;3.50;3.10;;;;;;;16.66;49.94;102157.56;5049784;28;20213;-79
2023/05/04 10:45:11;;;;;;;4.53;2.87;;;;;;;16.73;50.94;102160.97;5050196;28;20271;-80
2023/05/04 10:47:39;;;;;;;3.10;2.90;;;;;;;16.80;47.95;102154.72;5053012;28;20224;-81
2023/05/04 10:50:09;;;;;;;3.20;2.53;;;;;;;16.95;51.48;102165.03;5056023;28;20222;-79
2023/05/04 10:52:46;;;;;;;4.87;2.90;;;;;;;17.11;50.06;102143.66;5054531;28;20210;-79
2023/05/04 10:55:13;;;;;;;3.50;3.20;;;;;;;16.78;47.50;102167.06;5054199;28;20259;-81
2023/05/04 10:57:49;;;;;;;3.50;3.20;;;;;;;16.82;50.39;102177.53;5053575;28;20239;-79
2023/05/04 11:00:16;;;;;;;3.63;3.33;;;;;;;16.97;47.50;102171.16;5042853;28;20296;-80
2023/05/04 11:02:43;;;;;;;4.00;3.20;;;;;;;17.11;46.61;102214.88;5037734;28;20206;-81
2023/05/04 11:05:14;;;;;;;3.83;3.53;;;;;;;17.27;46.58;102222.50;5037610;28;20206;-79
2023/05/04 11:07:41;;;;;;;3.30;2.70;;;;;;;17.51;46.99;102230.84;5036800;28;20296;-81
2023/05/04 11:10:19;;;;;;;3.27;2.90;;;;;;;17.66;46.77;102250.81;5045314;28;20284;-79
2023/05/04 11:12:47;;;;;;;4.73;3.47;;;;;;;17.84;45.58;102252.25;5048674;28;20676;-80
2023/05/04 11:15:13;;;;;;;3.20;2.90;;;;;;;17.91;46.05;102268.84;5048269;28;20239;-80
2023/05/04 11:17:48;;;;;;;4.13;3.03;;;;;;;17.93;44.79;102285.53;5047996;28;20194;-81
2023/05/04 11:20:21;;;;;;;2.43;2.23;;;;;;;18.04;45.16;102288.84;5052586;28;20218;-81
2023/05/04 11:22:48;;;;;;;4.60;3.43;;;;;;;18.17;44.25;102308.81;5043115;28;20248;-80
2023/05/04 11:25:15;;;;;;;3.63;3.33;;;;;;;18.31;43.67;102321.75;5036886;28;20198;-81
2023/05/04 11:27:42;;;;;;;4.50;2.83;;;;;;;18.34;44.99;102340.19;5036922;28;20229;-81
2023/05/04 11:30:11;;;;;;;3.67;2.80;;;;;;;18.52;44.81;102319.56;5036777;28;20726;-81
2023/05/04 11:32:41;;;;;;;2.60;2.00;;;;;;;18.70;45.86;102300.63;5035322;28;20204;-81